Terminal Aerodrome Forecast
Issued by NWS

Home | Current Version | Previous Version | Text Only | Print | Product List | Glossary On
Versions: 1 2 3 4 5 6 7 8 9 10 11 12 13 14 15 16 17 18 19
000
FTUS46 KLOX 090546
TAFOXR
TAF
KOXR 090546Z 0906/1006 29006KT 1SM BR VCSH OVC004
     FM091100 VRB03KT 2SM -SHRA BR OVC007
     FM091600 VRB03KT P6SM SCT007 OVC015
     FM091900 27008KT P6SM SCT015 BKN040
     FM100300 VRB03KT P6SM SCT015 BKN040=

USA.gov is the U.S. government's official web portal to all federal, state and local government web resources and services.